Estación Meteorológica Peña el Pijo (Robertgarden) [ 02/03/23 03:02:26 CET ]

Fecha Hora Presion(HPa) Temp (°C) Humedad % Rocio (°C) Viento ( m/s) Direccion Lluvia 1Hora(mm) Lluvia 24H(mm) LLuvia Total(mm)
2010-Aug-10 01:01:17 1015.800 23.0 44 10.0         130.53
2010-Aug-10 02:01:16 1015.700 22.1 47 10.2         130.53
2010-Aug-10 03:01:15 1015.300 21.6 52 11.3         130.53
2010-Aug-10 04:01:21 1015.600 21.2 55 11.8         130.53
2010-Aug-10 05:01:13 1016.500 20.3 66 13.7         130.53
2010-Aug-10 06:01:12 1016.100 18.2 82 15.1     1.03 1.03 131.57
2010-Aug-10 07:01:16 1015.800 17.8 86 15.4       1.03 131.57
2010-Aug-10 08:01:13 1015.600 17.6 88 15.6       1.03 131.57
2010-Aug-10 09:01:12 1015.700 20.8 82 17.6       1.03 131.57
2010-Aug-10 10:01:14 1015.800 26.4 60 18.1       1.03 131.57
2010-Aug-10 11:01:14 1016.000 30.1 44 16.5       1.03 131.57
2010-Aug-10 12:01:12 1015.900 33.8 33 15.2       1.03 131.57
2010-Aug-10 13:01:11 1016.000 34.8 30 14.7       1.03 131.57
2010-Aug-10 14:01:17 1015.700 34.8 30 14.7       1.03 131.57
2010-Aug-10 15:01:16 1015.500 36.8 26 13.9       1.03 131.57
2010-Aug-10 16:01:15 1014.700 36.3 25 12.9       1.03 131.57
2010-Aug-10 17:01:46 1014.800 33.2 30 13.4 3.3 NE   1.03 131.57
2010-Aug-10 18:01:44 1015.200 29.6 37 13.3       1.03 131.57
2010-Aug-10 19:01:50 1015.300 28.2 36 11.6       1.03 131.57
2010-Aug-10 20:01:41 1015.300 26.9 39 11.8       1.03 131.57
2010-Aug-10 21:01:12 1016.000 25.3 47 13.2       1.03 131.57
2010-Aug-10 22:01:11 1016.200 22.9 55 13.3       1.03 131.57
2010-Aug-10 23:01:11 1017.100 21.1 62 13.6       1.03 131.57

Temperatura Máxima:36°    Temperatura Mínima:17°
Presión Máxima:1017.100 Hpa    Presión Mínima:1014.700 Hpa


Volver